createdAt,value
2023-05-06T00:00:25.071Z,43.74
2023-05-06T00:00:56.669Z,43.47
2023-05-06T00:01:28.173Z,43.71
2023-05-06T00:01:59.767Z,43.58
2023-05-06T00:02:31.317Z,43.71
2023-05-06T00:03:02.907Z,43.47
2023-05-06T00:03:34.660Z,43.61
2023-05-06T00:04:06.494Z,43.48
2023-05-06T00:04:38.206Z,43.66
2023-05-06T00:05:10.085Z,43.52
2023-05-06T00:05:41.827Z,43.60
2023-05-06T00:06:13.485Z,43.61
2023-05-06T00:06:45.015Z,43.65
2023-05-06T00:07:16.502Z,43.44
2023-05-06T00:07:48.041Z,43.74
2023-05-06T00:08:19.788Z,43.71
2023-05-06T00:08:51.325Z,43.80
2023-05-06T00:09:23.262Z,43.56
2023-05-06T00:09:54.840Z,43.70
2023-05-06T00:10:26.396Z,43.72
2023-05-06T00:10:58.117Z,43.79
2023-05-06T00:11:29.790Z,43.70
2023-05-06T00:12:01.472Z,43.50
2023-05-06T00:12:33.092Z,43.71
2023-05-06T00:13:04.727Z,43.73
2023-05-06T00:13:36.436Z,43.74
2023-05-06T00:14:08.090Z,43.75
2023-05-06T00:14:39.582Z,43.70
2023-05-06T00:15:11.502Z,43.71
2023-05-06T00:15:43.351Z,43.54
2023-05-06T00:16:14.933Z,43.35
2023-05-06T00:16:46.647Z,43.52
2023-05-06T00:17:18.239Z,43.44
2023-05-06T00:17:49.781Z,43.66
2023-05-06T00:18:21.383Z,43.48
2023-05-06T00:18:52.946Z,43.57
2023-05-06T00:19:24.539Z,43.82
2023-05-06T00:19:56.113Z,43.65
2023-05-06T00:20:27.884Z,43.53
2023-05-06T00:20:59.473Z,43.74
2023-05-06T00:21:31.055Z,43.79
2023-05-06T00:22:02.638Z,43.49
2023-05-06T00:22:34.161Z,43.74
2023-05-06T00:23:05.752Z,43.67
2023-05-06T00:23:37.341Z,43.55
2023-05-06T00:24:09.041Z,43.78
2023-05-06T00:24:40.558Z,43.66
2023-05-06T00:25:12.166Z,43.55
2023-05-06T00:25:43.798Z,43.59
2023-05-06T00:26:15.270Z,43.75
2023-05-06T00:26:46.890Z,43.72
2023-05-06T00:27:18.383Z,43.66
2023-05-06T00:27:50.094Z,43.36
2023-05-06T00:28:21.662Z,43.71
2023-05-06T00:28:53.189Z,43.49
2023-05-06T00:29:24.767Z,43.70
2023-05-06T00:29:57.851Z,43.41
2023-05-06T00:30:29.429Z,43.49
2023-05-06T00:31:01.009Z,43.47
2023-05-06T00:31:32.577Z,43.64
2023-05-06T00:32:04.395Z,43.55
2023-05-06T00:32:36.110Z,43.67
2023-05-06T00:33:07.750Z,43.46
2023-05-06T00:33:39.477Z,43.53
2023-05-06T00:34:11.166Z,43.52
2023-05-06T00:34:42.896Z,43.64
2023-05-06T00:35:14.456Z,43.42
2023-05-06T00:35:45.931Z,43.58
2023-05-06T00:36:17.545Z,43.65
2023-05-06T00:36:49.058Z,43.33
2023-05-06T00:37:20.588Z,43.63
2023-05-06T00:37:58.542Z,43.55
2023-05-06T00:38:30.319Z,43.28
2023-05-06T00:39:01.862Z,43.41
2023-05-06T00:39:33.405Z,43.65
2023-05-06T00:40:05.303Z,43.58
2023-05-06T00:40:36.889Z,43.65
2023-05-06T00:41:08.498Z,43.63
2023-05-06T00:41:40.061Z,43.58
2023-05-06T00:42:11.556Z,43.42
2023-05-06T00:42:43.153Z,43.45
2023-05-06T00:43:14.750Z,43.52
2023-05-06T00:43:46.219Z,43.49
2023-05-06T00:44:17.790Z,43.73
2023-05-06T00:44:49.770Z,43.41
2023-05-06T00:45:21.287Z,43.32
2023-05-06T00:45:52.997Z,43.60
2023-05-06T00:46:24.636Z,43.56
2023-05-06T00:46:56.645Z,43.39
2023-05-06T00:47:28.274Z,43.51
2023-05-06T00:47:59.844Z,43.42
2023-05-06T00:48:31.450Z,43.39
2023-05-06T00:49:03.029Z,43.55
2023-05-06T00:49:34.557Z,43.28
2023-05-06T00:50:06.333Z,43.56
2023-05-06T00:50:38.035Z,43.38
2023-05-06T00:51:09.671Z,43.55
2023-05-06T00:51:41.168Z,43.44
2023-05-06T00:52:13.004Z,43.27
2023-05-06T00:52:44.546Z,43.37
2023-05-06T00:53:18.612Z,43.53
2023-05-06T00:53:50.253Z,43.44
2023-05-06T00:54:21.820Z,43.17
2023-05-06T00:54:53.353Z,43.32
2023-05-06T00:55:24.982Z,43.48
2023-05-06T00:55:56.488Z,43.46
2023-05-06T00:56:28.132Z,43.28
2023-05-06T00:56:59.696Z,43.42
2023-05-06T00:57:31.436Z,43.32
2023-05-06T00:58:03.292Z,43.31
2023-05-06T00:58:34.844Z,43.48
2023-05-06T00:59:06.353Z,43.29
2023-05-06T00:59:37.941Z,43.49
2023-05-06T01:00:09.768Z,43.25
2023-05-06T01:00:41.827Z,43.26
2023-05-06T01:01:13.364Z,43.20
2023-05-06T01:01:44.994Z,43.21
2023-05-06T01:02:16.617Z,43.35
2023-05-06T01:02:48.450Z,43.52
2023-05-06T01:03:20.307Z,43.21
2023-05-06T01:03:52.072Z,43.45
2023-05-06T01:04:23.743Z,43.14
2023-05-06T01:04:55.326Z,43.31
2023-05-06T01:05:29.046Z,43.38
2023-05-06T01:06:03.469Z,43.06
2023-05-06T01:06:40.752Z,43.32
2023-05-06T01:07:16.594Z,43.17
2023-05-06T01:08:08.379Z,43.33
2023-05-06T01:08:59.188Z,43.06
2023-05-06T01:09:32.281Z,43.25
2023-05-06T01:10:13.814Z,42.95
2023-05-06T01:10:47.365Z,43.27
2023-05-06T01:11:44.973Z,43.03
2023-05-06T01:12:17.513Z,43.15
2023-05-06T01:12:50.769Z,43.11
2023-05-06T01:13:45.477Z,42.94
2023-05-06T01:14:30.672Z,43.18
2023-05-06T01:15:04.023Z,42.92
2023-05-06T01:15:38.667Z,42.99
2023-05-06T01:16:10.259Z,43.02
2023-05-06T01:16:41.903Z,43.02
2023-05-06T01:17:13.757Z,42.87
2023-05-06T01:17:45.725Z,43.16
2023-05-06T01:18:17.679Z,42.97
2023-05-06T01:18:49.181Z,43.01
2023-05-06T01:19:39.344Z,42.92
2023-05-06T01:20:10.914Z,42.81
2023-05-06T01:20:42.455Z,42.93
2023-05-06T01:21:14.010Z,42.96
2023-05-06T01:21:45.498Z,43.04
2023-05-06T01:22:17.044Z,42.94
2023-05-06T01:22:49.329Z,42.92
2023-05-06T01:23:20.953Z,43.12
2023-05-06T01:23:53.165Z,42.76
2023-05-06T01:24:34.083Z,42.95
2023-05-06T01:25:05.992Z,43.11
2023-05-06T01:25:37.553Z,42.82
2023-05-06T01:26:09.138Z,42.96
2023-05-06T01:26:40.737Z,42.97
2023-05-06T01:27:12.804Z,43.15
2023-05-06T01:27:44.427Z,42.97
2023-05-06T01:28:16.033Z,42.81
2023-05-06T01:28:47.631Z,42.81
2023-05-06T01:29:19.143Z,42.85
2023-05-06T01:29:50.647Z,42.78
2023-05-06T01:30:22.228Z,42.65
2023-05-06T01:31:01.001Z,42.79
2023-05-06T01:31:35.966Z,42.67
2023-05-06T01:32:13.022Z,42.62
2023-05-06T01:32:50.819Z,42.84
2023-05-06T01:33:40.139Z,42.66
2023-05-06T01:34:14.373Z,42.74
2023-05-06T01:34:49.773Z,42.85
2023-05-06T01:35:21.248Z,42.72
2023-05-06T01:35:55.421Z,42.92
2023-05-06T01:36:36.463Z,42.87
2023-05-06T01:38:23.709Z,42.94
2023-05-06T01:39:06.113Z,42.63
2023-05-06T01:39:37.563Z,42.77
2023-05-06T01:40:09.074Z,42.71
2023-05-06T01:40:40.522Z,42.52
2023-05-06T01:41:13.434Z,42.63
2023-05-06T01:41:44.930Z,42.76
2023-05-06T01:42:16.479Z,42.52
2023-05-06T01:42:48.099Z,42.62
2023-05-06T01:43:19.639Z,42.63
2023-05-06T01:43:51.005Z,42.51
2023-05-06T01:44:22.486Z,42.46
2023-05-06T01:44:54.959Z,42.55
2023-05-06T01:45:27.582Z,42.49
2023-05-06T01:45:59.064Z,42.43
2023-05-06T01:46:30.626Z,42.60
2023-05-06T01:47:01.989Z,42.72
2023-05-06T01:47:33.479Z,42.46
2023-05-06T01:48:05.198Z,42.71
2023-05-06T01:48:36.647Z,42.45
2023-05-06T01:49:08.212Z,42.45
2023-05-06T01:49:39.654Z,42.64
2023-05-06T01:50:11.080Z,42.50
2023-05-06T01:50:42.519Z,42.54
2023-05-06T01:51:13.991Z,42.63
2023-05-06T01:51:48.494Z,42.56
2023-05-06T01:52:20.999Z,42.47
2023-05-06T01:52:59.007Z,42.59
2023-05-06T01:53:31.638Z,42.44
2023-05-06T01:54:03.104Z,42.39
2023-05-06T01:54:34.580Z,42.49
2023-05-06T01:55:06.645Z,42.84
2023-05-06T01:55:38.132Z,42.51
2023-05-06T01:56:09.678Z,42.75
2023-05-06T01:56:41.154Z,42.52
2023-05-06T01:57:12.583Z,42.60
2023-05-06T01:57:44.077Z,42.64
2023-05-06T01:58:15.561Z,42.85
2023-05-06T01:58:47.149Z,42.85
2023-05-06T01:59:18.656Z,42.65
2023-05-06T01:59:50.216Z,42.81
2023-05-06T02:00:21.711Z,42.82
2023-05-06T02:00:53.359Z,42.66
2023-05-06T02:01:24.803Z,42.54
2023-05-06T02:01:56.367Z,42.81
2023-05-06T02:02:27.955Z,42.66
2023-05-06T02:02:59.493Z,42.79
2023-05-06T02:03:31.252Z,42.85
2023-05-06T02:04:02.978Z,42.77
2023-05-06T02:04:34.600Z,42.55
2023-05-06T02:05:06.358Z,42.58
2023-05-06T02:05:37.808Z,42.71
2023-05-06T02:06:09.261Z,42.60
2023-05-06T02:06:40.719Z,42.53
2023-05-06T02:07:12.242Z,42.49
2023-05-06T02:07:43.735Z,42.71
2023-05-06T02:08:15.309Z,42.46
2023-05-06T02:08:46.834Z,42.49
2023-05-06T02:09:18.379Z,42.46
2023-05-06T02:09:49.795Z,42.66
2023-05-06T02:10:21.247Z,42.57
2023-05-06T02:10:52.674Z,42.56
2023-05-06T02:11:24.096Z,42.41
2023-05-06T02:11:55.543Z,42.60
2023-05-06T02:12:27.063Z,42.48
2023-05-06T02:12:58.573Z,42.33
2023-05-06T02:13:30.011Z,42.45
2023-05-06T02:14:01.552Z,42.42
2023-05-06T02:14:33.014Z,42.37
2023-05-06T02:15:04.756Z,42.60
2023-05-06T02:15:36.299Z,42.41
2023-05-06T02:16:07.860Z,42.49
2023-05-06T02:16:39.387Z,42.29
2023-05-06T02:17:10.985Z,42.67
2023-05-06T02:17:42.694Z,42.28
2023-05-06T02:18:14.217Z,42.45
2023-05-06T02:18:45.636Z,42.37
2023-05-06T02:19:17.279Z,42.43
2023-05-06T02:19:48.745Z,42.34
2023-05-06T02:20:20.288Z,42.26
2023-05-06T02:20:51.798Z,42.37
2023-05-06T02:21:23.581Z,42.42
2023-05-06T02:21:55.076Z,42.51
2023-05-06T02:22:26.569Z,42.28
2023-05-06T02:22:58.391Z,42.22
2023-05-06T02:23:29.967Z,42.24
2023-05-06T02:24:01.523Z,42.34
2023-05-06T02:24:33.073Z,42.30
2023-05-06T02:25:04.726Z,42.19
2023-05-06T02:25:36.186Z,42.16
2023-05-06T02:26:07.593Z,42.22
2023-05-06T02:26:39.024Z,42.38
2023-05-06T02:27:10.470Z,42.21
2023-05-06T02:27:41.893Z,42.16
2023-05-06T02:28:13.419Z,42.12
2023-05-06T02:28:45.053Z,42.28
2023-05-06T02:29:16.544Z,42.09
2023-05-06T02:29:48.089Z,42.29
2023-05-06T02:30:19.624Z,42.21
2023-05-06T02:30:54.837Z,41.95
2023-05-06T02:31:26.426Z,42.19
2023-05-06T02:31:57.967Z,41.90
2023-05-06T02:32:29.403Z,42.01
2023-05-06T02:33:00.968Z,42.03
2023-05-06T02:33:32.501Z,41.96
2023-05-06T02:34:04.476Z,42.02
2023-05-06T02:34:35.957Z,42.11
2023-05-06T02:35:08.082Z,41.93
2023-05-06T02:35:39.722Z,42.02
2023-05-06T02:36:11.161Z,42.07
2023-05-06T02:36:42.568Z,42.11
2023-05-06T02:37:14.123Z,41.83
2023-05-06T02:37:45.517Z,42.05
2023-05-06T02:38:17.098Z,41.97
2023-05-06T02:38:48.607Z,41.88
2023-05-06T02:39:20.114Z,41.95
2023-05-06T02:39:51.593Z,42.05
2023-05-06T02:40:23.080Z,41.99
2023-05-06T02:40:54.544Z,42.04
2023-05-06T02:41:25.937Z,41.84
2023-05-06T02:41:57.434Z,41.88
2023-05-06T02:42:28.846Z,42.00
2023-05-06T02:43:00.388Z,42.17
2023-05-06T02:43:31.823Z,42.22
2023-05-06T02:44:03.283Z,41.97
2023-05-06T02:44:34.746Z,41.90
2023-05-06T02:45:06.464Z,42.07
2023-05-06T02:45:37.899Z,41.84
2023-05-06T02:46:09.590Z,41.84
2023-05-06T02:46:41.086Z,41.77
2023-05-06T02:47:12.540Z,41.85
2023-05-06T02:47:44.148Z,42.03
2023-05-06T02:48:15.662Z,41.72
2023-05-06T02:48:47.058Z,41.92
2023-05-06T02:49:18.598Z,41.82
2023-05-06T02:49:50.026Z,42.06
2023-05-06T02:50:21.575Z,41.89
2023-05-06T02:50:53.037Z,41.78
2023-05-06T02:51:24.558Z,41.79
2023-05-06T02:51:56.034Z,42.00
2023-05-06T02:52:27.504Z,41.79
2023-05-06T02:52:58.970Z,41.83
2023-05-06T02:53:30.398Z,41.79
2023-05-06T02:54:01.939Z,41.90
2023-05-06T02:54:33.482Z,41.89
2023-05-06T02:55:05.657Z,41.58
2023-05-06T02:55:37.145Z,41.81
2023-05-06T02:56:08.718Z,41.91
2023-05-06T02:56:40.378Z,41.72
2023-05-06T02:57:11.803Z,41.96
2023-05-06T02:57:43.268Z,41.73
2023-05-06T02:58:14.764Z,41.79
2023-05-06T02:58:46.206Z,41.83
2023-05-06T02:59:17.645Z,41.80
2023-05-06T02:59:49.109Z,41.74
2023-05-06T03:00:20.703Z,41.72
2023-05-06T03:00:52.201Z,41.69
2023-05-06T03:01:23.686Z,41.69
2023-05-06T03:01:55.186Z,41.76
2023-05-06T03:02:26.612Z,41.67
2023-05-06T03:02:58.207Z,41.86
2023-05-06T03:03:29.665Z,41.65
2023-05-06T03:04:01.073Z,41.73
2023-05-06T03:04:32.685Z,41.65
2023-05-06T03:05:04.359Z,41.68
2023-05-06T03:05:35.808Z,41.78
2023-05-06T03:06:07.326Z,41.84
2023-05-06T03:06:38.807Z,41.72
2023-05-06T03:07:10.221Z,41.81
2023-05-06T03:07:41.708Z,41.78
2023-05-06T03:08:13.153Z,41.59
2023-05-06T03:08:44.597Z,41.63
2023-05-06T03:09:16.059Z,41.78
2023-05-06T03:09:47.528Z,41.64
2023-05-06T03:10:19.101Z,41.54
2023-05-06T03:10:50.591Z,41.68
2023-05-06T03:11:22.098Z,41.62
2023-05-06T03:11:53.531Z,41.49
2023-05-06T03:12:25.033Z,41.45
2023-05-06T03:12:56.534Z,41.50
2023-05-06T03:13:27.947Z,41.50
2023-05-06T03:13:59.351Z,41.34
2023-05-06T03:14:30.794Z,41.45
2023-05-06T03:15:02.207Z,41.59
2023-05-06T03:15:33.706Z,41.36
2023-05-06T03:16:05.329Z,41.51
2023-05-06T03:16:36.905Z,41.32
2023-05-06T03:17:08.449Z,41.39
2023-05-06T03:17:39.942Z,41.37
2023-05-06T03:18:11.651Z,41.30
2023-05-06T03:18:43.103Z,41.56
2023-05-06T03:19:14.634Z,41.44
2023-05-06T03:19:46.130Z,41.22
2023-05-06T03:20:17.694Z,41.42
2023-05-06T03:20:49.272Z,41.43
2023-05-06T03:21:20.816Z,41.40
2023-05-06T03:21:52.299Z,41.27
2023-05-06T03:22:23.772Z,41.36
2023-05-06T03:22:55.693Z,41.27
2023-05-06T03:23:27.259Z,41.32
2023-05-06T03:23:58.941Z,41.18
2023-05-06T03:24:30.471Z,41.26
2023-05-06T03:25:01.958Z,41.24
2023-05-06T03:25:33.491Z,41.13
2023-05-06T03:26:05.031Z,41.20
2023-05-06T03:26:36.562Z,41.12
2023-05-06T03:27:07.967Z,41.28
2023-05-06T03:27:39.477Z,41.19
2023-05-06T03:28:11.289Z,41.17
2023-05-06T03:28:42.926Z,41.16
2023-05-06T03:29:14.426Z,41.11
2023-05-06T03:29:45.914Z,41.25
2023-05-06T03:30:17.375Z,41.33
2023-05-06T03:30:48.923Z,41.10
2023-05-06T03:31:20.436Z,41.23
2023-05-06T03:31:51.966Z,41.21
2023-05-06T03:32:23.515Z,41.25
2023-05-06T03:32:55.243Z,41.14
2023-05-06T03:33:26.771Z,41.15
2023-05-06T03:33:58.248Z,41.04
2023-05-06T03:34:29.836Z,41.18
2023-05-06T03:35:01.315Z,41.08
2023-05-06T03:35:32.824Z,41.08
2023-05-06T03:36:04.550Z,41.03
2023-05-06T03:36:36.121Z,41.08
2023-05-06T03:37:07.661Z,41.14
2023-05-06T03:37:39.138Z,41.04
2023-05-06T03:38:10.642Z,41.21
2023-05-06T03:38:42.152Z,41.03
2023-05-06T03:39:13.564Z,41.01
2023-05-06T03:39:45.195Z,41.03
2023-05-06T03:40:16.655Z,40.91
2023-05-06T03:40:48.163Z,40.77
2023-05-06T03:41:19.619Z,40.96
2023-05-06T03:41:51.096Z,41.08
2023-05-06T03:42:22.606Z,40.88
2023-05-06T03:42:54.053Z,40.86
2023-05-06T03:43:25.560Z,41.02
2023-05-06T03:43:57.050Z,40.82
2023-05-06T03:44:28.512Z,40.96
2023-05-06T03:44:59.971Z,40.86
2023-05-06T03:45:31.458Z,40.80
2023-05-06T03:46:03.147Z,40.73
2023-05-06T03:46:34.850Z,40.88
2023-05-06T03:47:06.418Z,40.85
2023-05-06T03:47:37.918Z,40.99
2023-05-06T03:48:09.606Z,40.87
2023-05-06T03:48:41.121Z,40.73
2023-05-06T03:49:12.860Z,40.80
2023-05-06T03:49:44.321Z,40.65
2023-05-06T03:50:15.872Z,40.68
2023-05-06T03:50:47.300Z,40.79
2023-05-06T03:51:18.806Z,40.76
2023-05-06T03:51:50.254Z,40.86
2023-05-06T03:52:21.920Z,40.83
2023-05-06T03:52:53.428Z,40.79
2023-05-06T03:53:25.203Z,40.69
2023-05-06T03:53:56.740Z,40.79
2023-05-06T03:54:28.227Z,40.54
2023-05-06T03:54:59.668Z,40.64
2023-05-06T03:55:31.098Z,40.62
2023-05-06T03:56:02.558Z,40.60
2023-05-06T03:56:34.003Z,40.69
2023-05-06T03:57:05.518Z,40.61
2023-05-06T03:57:37.148Z,40.48
2023-05-06T03:58:08.584Z,40.50
2023-05-06T03:58:40.152Z,40.43
2023-05-06T03:59:11.676Z,40.50
2023-05-06T03:59:43.273Z,40.64
2023-05-06T04:00:14.804Z,40.48
2023-05-06T04:00:46.311Z,40.58
2023-05-06T04:01:17.832Z,40.68
2023-05-06T04:01:49.382Z,40.54
2023-05-06T04:02:20.950Z,40.61
2023-05-06T04:02:52.560Z,40.57
2023-05-06T04:03:24.191Z,40.77
2023-05-06T04:03:55.727Z,40.59
2023-05-06T04:04:27.350Z,40.46
2023-05-06T04:04:58.902Z,40.54
2023-05-06T04:05:30.381Z,40.34
2023-05-06T04:06:01.874Z,40.44
2023-05-06T04:06:33.332Z,40.50
2023-05-06T04:07:04.792Z,40.47
2023-05-06T04:07:36.259Z,40.38
2023-05-06T04:08:07.772Z,40.38
2023-05-06T04:08:39.270Z,40.26
2023-05-06T04:09:10.797Z,40.40
2023-05-06T04:09:42.372Z,40.45
2023-05-06T04:10:13.997Z,40.08
2023-05-06T04:10:45.632Z,40.17
2023-05-06T04:11:17.133Z,40.22
2023-05-06T04:11:48.633Z,40.18
2023-05-06T04:12:20.053Z,40.30
2023-05-06T04:12:51.557Z,40.20
2023-05-06T04:13:23.202Z,40.24
2023-05-06T04:13:54.742Z,40.04
2023-05-06T04:14:26.205Z,40.00
2023-05-06T04:14:57.664Z,40.11
2023-05-06T04:15:29.134Z,39.99
2023-05-06T04:16:00.870Z,39.97
2023-05-06T04:16:32.436Z,40.07
2023-05-06T04:17:03.938Z,40.08
2023-05-06T04:17:35.473Z,40.11
2023-05-06T04:18:07.066Z,40.10
2023-05-06T04:18:38.610Z,40.05
2023-05-06T04:19:10.071Z,40.00
2023-05-06T04:19:41.499Z,40.08
2023-05-06T04:20:13.110Z,40.07
2023-05-06T04:20:47.386Z,40.05
2023-05-06T04:21:18.949Z,40.04
2023-05-06T04:21:50.432Z,40.00
2023-05-06T04:22:21.876Z,40.02
2023-05-06T04:22:53.370Z,40.04
2023-05-06T04:23:24.864Z,40.07
2023-05-06T04:23:56.420Z,40.06
2023-05-06T04:24:27.916Z,40.09
2023-05-06T04:24:59.286Z,39.82
2023-05-06T04:25:30.766Z,39.94
2023-05-06T04:26:02.286Z,39.80
2023-05-06T04:26:33.816Z,39.97
2023-05-06T04:27:05.224Z,39.85
2023-05-06T04:27:36.775Z,39.84
2023-05-06T04:28:11.150Z,39.87
2023-05-06T04:28:42.663Z,39.88
2023-05-06T04:29:14.161Z,39.92
2023-05-06T04:29:45.782Z,39.81
2023-05-06T04:30:17.299Z,39.74
2023-05-06T04:30:48.833Z,39.75
2023-05-06T04:31:20.393Z,39.88
2023-05-06T04:31:51.938Z,39.77
2023-05-06T04:32:23.410Z,39.65
2023-05-06T04:32:54.927Z,39.59
2023-05-06T04:33:26.340Z,39.62
2023-05-06T04:33:57.921Z,39.49
2023-05-06T04:34:29.360Z,39.64
2023-05-06T04:35:00.862Z,39.71
2023-05-06T04:35:32.428Z,39.38
2023-05-06T04:36:04.097Z,39.71
2023-05-06T04:36:35.562Z,39.39
2023-05-06T04:37:07.043Z,39.56
2023-05-06T04:37:38.836Z,39.62
2023-05-06T04:38:10.427Z,39.47
2023-05-06T04:38:41.902Z,39.52
2023-05-06T04:39:13.880Z,39.58
2023-05-06T04:39:45.453Z,39.55
2023-05-06T04:40:19.704Z,39.52
2023-05-06T04:40:51.412Z,39.57
2023-05-06T04:41:22.869Z,39.66
2023-05-06T04:41:54.273Z,39.67
2023-05-06T04:42:25.764Z,39.69
2023-05-06T04:42:57.228Z,39.68
2023-05-06T04:43:28.682Z,39.59
2023-05-06T04:44:00.296Z,39.63
2023-05-06T04:44:31.772Z,39.63
2023-05-06T04:45:03.689Z,39.77
2023-05-06T04:45:35.164Z,39.70
2023-05-06T04:46:06.719Z,39.68
2023-05-06T04:46:38.304Z,39.67
2023-05-06T04:47:09.820Z,39.66
2023-05-06T04:47:41.285Z,39.54
2023-05-06T04:48:12.780Z,39.73
2023-05-06T04:48:44.242Z,39.63
2023-05-06T04:49:15.774Z,39.57
2023-05-06T04:49:47.286Z,39.73
2023-05-06T04:50:18.811Z,39.74
2023-05-06T04:50:50.539Z,39.62
2023-05-06T04:51:22.092Z,39.76
2023-05-06T04:51:53.524Z,39.52
2023-05-06T04:52:25.024Z,39.64
2023-05-06T04:52:56.476Z,39.70
2023-05-06T04:53:28.004Z,39.68
2023-05-06T04:53:59.600Z,39.65
2023-05-06T04:54:31.053Z,39.60
2023-05-06T04:55:02.510Z,39.55
2023-05-06T04:55:34.185Z,39.58
2023-05-06T04:56:05.732Z,39.63
2023-05-06T04:56:37.243Z,39.61
2023-05-06T04:57:08.709Z,39.53
2023-05-06T04:57:40.334Z,39.55
2023-05-06T04:58:11.829Z,39.57
2023-05-06T04:58:43.442Z,39.64
2023-05-06T04:59:14.916Z,39.56
2023-05-06T04:59:46.386Z,39.63
2023-05-06T05:00:17.918Z,39.57
2023-05-06T05:00:49.414Z,39.65
2023-05-06T05:01:21.008Z,39.47
2023-05-06T05:01:52.561Z,39.42
2023-05-06T05:02:24.135Z,39.54
2023-05-06T05:02:55.778Z,39.65
2023-05-06T05:03:27.404Z,39.49
2023-05-06T05:03:59.099Z,39.48
2023-05-06T05:04:30.616Z,39.57
2023-05-06T05:05:02.409Z,39.42
2023-05-06T05:05:33.964Z,39.51
2023-05-06T05:06:05.517Z,39.56
2023-05-06T05:06:36.991Z,39.68
2023-05-06T05:07:08.400Z,39.47
2023-05-06T05:07:39.885Z,39.56
2023-05-06T05:08:11.267Z,39.38
2023-05-06T05:08:42.807Z,39.51
2023-05-06T05:09:14.214Z,39.60
2023-05-06T05:09:45.667Z,39.44
2023-05-06T05:10:17.209Z,39.48
2023-05-06T05:10:48.640Z,39.43
2023-05-06T05:11:20.093Z,39.56
2023-05-06T05:11:51.568Z,39.52
2023-05-06T05:12:23.063Z,39.59
2023-05-06T05:12:54.525Z,39.61
2023-05-06T05:13:26.104Z,39.51
2023-05-06T05:13:58.888Z,39.72
2023-05-06T05:14:31.674Z,39.56
2023-05-06T05:15:03.239Z,39.56
2023-05-06T05:15:34.694Z,39.61
2023-05-06T05:16:06.357Z,39.64
2023-05-06T05:16:37.951Z,39.73
2023-05-06T05:17:09.746Z,39.68
2023-05-06T05:17:41.423Z,39.67
2023-05-06T05:18:13.015Z,39.69
2023-05-06T05:18:44.505Z,39.77
2023-05-06T05:19:16.010Z,39.60
2023-05-06T05:19:47.509Z,39.59
2023-05-06T05:20:19.297Z,39.43
2023-05-06T05:20:50.811Z,39.63
2023-05-06T05:21:22.258Z,39.71
2023-05-06T05:21:53.810Z,39.58
2023-05-06T05:22:25.203Z,39.70
2023-05-06T05:22:56.770Z,39.62
2023-05-06T05:23:28.316Z,39.68
2023-05-06T05:23:59.795Z,39.60
2023-05-06T05:24:31.238Z,39.57
2023-05-06T05:25:02.763Z,39.73
2023-05-06T05:25:34.135Z,39.78
2023-05-06T05:26:05.684Z,39.76
2023-05-06T05:26:37.112Z,39.65
2023-05-06T05:27:08.739Z,39.59
2023-05-06T05:27:40.235Z,39.72
2023-05-06T05:28:11.728Z,39.70
2023-05-06T05:28:43.259Z,39.73
2023-05-06T05:29:14.644Z,39.94
2023-05-06T05:29:46.155Z,39.75
2023-05-06T05:30:17.621Z,39.86
2023-05-06T05:30:49.212Z,40.03
2023-05-06T05:31:20.786Z,39.81
2023-05-06T05:31:52.264Z,39.93
2023-05-06T05:32:23.807Z,39.96
2023-05-06T05:32:55.386Z,39.90
2023-05-06T05:33:27.011Z,39.90
2023-05-06T05:33:58.561Z,39.96
2023-05-06T05:34:30.253Z,40.03
2023-05-06T05:35:01.721Z,40.00
2023-05-06T05:35:33.170Z,40.13
2023-05-06T05:36:04.758Z,40.20
2023-05-06T05:36:36.245Z,40.12
2023-05-06T05:37:07.779Z,40.16
2023-05-06T05:37:39.288Z,40.19
2023-05-06T05:38:10.915Z,40.22
2023-05-06T05:38:42.449Z,40.22
2023-05-06T05:39:13.894Z,40.21
2023-05-06T05:39:45.412Z,40.21
2023-05-06T05:40:16.864Z,40.32
2023-05-06T05:40:48.310Z,40.19
2023-05-06T05:41:19.799Z,40.25
2023-05-06T05:41:51.322Z,40.29
2023-05-06T05:42:22.828Z,40.24
2023-05-06T05:42:54.361Z,40.19
2023-05-06T05:43:25.851Z,40.20
2023-05-06T05:43:57.283Z,40.11
2023-05-06T05:44:28.763Z,40.14
2023-05-06T05:45:00.368Z,40.14
2023-05-06T05:45:31.915Z,40.25
2023-05-06T05:46:03.487Z,40.13
2023-05-06T05:46:34.958Z,40.27
2023-05-06T05:47:06.481Z,40.26
2023-05-06T05:47:37.973Z,40.17
2023-05-06T05:48:09.449Z,40.34
2023-05-06T05:48:40.903Z,40.46
2023-05-06T05:49:12.423Z,40.45
2023-05-06T05:49:43.978Z,40.24
2023-05-06T05:50:15.438Z,40.42
2023-05-06T05:50:46.918Z,40.50
2023-05-06T05:51:18.404Z,40.66
2023-05-06T05:51:49.842Z,40.45
2023-05-06T05:52:21.426Z,40.52
2023-05-06T05:52:52.847Z,40.49
2023-05-06T05:53:24.264Z,40.56
2023-05-06T05:53:55.768Z,40.58
2023-05-06T05:54:27.194Z,40.63
2023-05-06T05:54:58.792Z,40.58
2023-05-06T05:55:30.224Z,40.61
2023-05-06T05:56:01.697Z,40.56
2023-05-06T05:56:33.112Z,40.61
2023-05-06T05:57:04.620Z,40.51
2023-05-06T05:57:36.042Z,40.62
2023-05-06T05:58:07.552Z,40.58
2023-05-06T05:58:38.996Z,40.68
2023-05-06T05:59:10.550Z,40.57
2023-05-06T05:59:42.004Z,40.61
2023-05-06T06:00:14.866Z,40.50
2023-05-06T06:00:46.324Z,40.71
2023-05-06T06:01:17.834Z,40.50
2023-05-06T06:01:49.444Z,40.72
2023-05-06T06:02:21.077Z,40.69
2023-05-06T06:02:52.798Z,40.76
2023-05-06T06:03:24.497Z,40.73
2023-05-06T06:03:56.338Z,40.73
2023-05-06T06:04:28.019Z,40.83
2023-05-06T06:04:59.588Z,40.81
2023-05-06T06:05:31.237Z,40.80
2023-05-06T06:06:02.691Z,40.83
2023-05-06T06:06:34.130Z,40.85
2023-05-06T06:07:05.572Z,40.76
2023-05-06T06:07:37.141Z,40.83
2023-05-06T06:08:08.718Z,40.79
2023-05-06T06:08:40.288Z,40.85
2023-05-06T06:09:11.759Z,40.86
2023-05-06T06:09:43.212Z,41.09
2023-05-06T06:10:14.680Z,41.13
2023-05-06T06:10:46.208Z,40.95
2023-05-06T06:11:17.747Z,40.93
2023-05-06T06:11:49.220Z,40.84
2023-05-06T06:12:20.712Z,40.92
2023-05-06T06:12:52.462Z,40.90
2023-05-06T06:13:25.217Z,41.00
2023-05-06T06:13:58.027Z,40.96
2023-05-06T06:14:29.500Z,40.97
2023-05-06T06:15:00.966Z,41.04
2023-05-06T06:15:32.460Z,41.12
2023-05-06T06:16:04.454Z,41.09
2023-05-06T06:16:36.495Z,41.11
2023-05-06T06:17:08.016Z,41.08
2023-05-06T06:17:39.554Z,41.26
2023-05-06T06:18:11.105Z,41.27
2023-05-06T06:18:42.574Z,41.33
2023-05-06T06:19:14.071Z,41.26
2023-05-06T06:19:45.705Z,41.39
2023-05-06T06:20:17.199Z,41.47
2023-05-06T06:20:50.014Z,41.44
2023-05-06T06:21:22.550Z,41.38
2023-05-06T06:21:54.018Z,41.19
2023-05-06T06:22:25.502Z,41.44
2023-05-06T06:22:57.045Z,41.25
2023-05-06T06:23:28.576Z,41.34
2023-05-06T06:23:59.989Z,41.24
2023-05-06T06:24:31.456Z,41.31
2023-05-06T06:25:02.997Z,41.36
2023-05-06T06:25:34.481Z,41.26
2023-05-06T06:26:06.013Z,41.40
2023-05-06T06:26:37.565Z,41.44
2023-05-06T06:27:09.109Z,41.55
2023-05-06T06:27:40.641Z,41.49
2023-05-06T06:28:12.101Z,41.45
2023-05-06T06:28:43.700Z,41.48
2023-05-06T06:29:15.381Z,41.49
2023-05-06T06:29:49.495Z,41.65
2023-05-06T06:30:21.031Z,41.65
2023-05-06T06:30:52.517Z,41.67
2023-05-06T06:31:24.010Z,41.75
2023-05-06T06:31:55.603Z,41.51
2023-05-06T06:32:27.155Z,41.60
2023-05-06T06:32:58.870Z,41.62
2023-05-06T06:33:30.431Z,41.52
2023-05-06T06:34:01.894Z,41.81
2023-05-06T06:34:33.382Z,41.76
2023-05-06T06:35:05.020Z,41.84
2023-05-06T06:35:36.520Z,41.75
2023-05-06T06:36:08.214Z,41.91
2023-05-06T06:36:40.574Z,41.80
2023-05-06T06:37:12.096Z,41.68
2023-05-06T06:37:43.548Z,41.91
2023-05-06T06:38:14.944Z,41.75
2023-05-06T06:38:46.454Z,41.88
2023-05-06T06:39:17.930Z,41.77
2023-05-06T06:39:49.392Z,42.00
2023-05-06T06:40:21.394Z,41.86
2023-05-06T06:40:52.918Z,41.78
2023-05-06T06:41:24.496Z,41.82
2023-05-06T06:41:56.450Z,41.83
2023-05-06T06:42:27.986Z,41.96
2023-05-06T06:42:59.451Z,41.77
2023-05-06T06:43:30.867Z,41.81
2023-05-06T06:44:02.343Z,41.91
2023-05-06T06:44:34.091Z,41.89
2023-05-06T06:45:07.144Z,41.82
2023-05-06T06:45:38.685Z,41.79
2023-05-06T06:46:10.229Z,41.81
2023-05-06T06:46:41.842Z,41.86
2023-05-06T06:47:13.346Z,41.76
2023-05-06T06:47:44.832Z,41.75
2023-05-06T06:48:16.362Z,41.71
2023-05-06T06:48:47.929Z,41.95
2023-05-06T06:49:19.419Z,41.92
2023-05-06T06:49:50.992Z,41.81
2023-05-06T06:50:22.475Z,41.79
2023-05-06T06:50:54.015Z,41.70
2023-05-06T06:51:25.561Z,41.93
2023-05-06T06:51:57.105Z,41.93
2023-05-06T06:52:28.589Z,42.02